createdAt,value
2019-05-06T00:00:19.891Z,3.69
2019-05-06T00:01:19.885Z,3.74
2019-05-06T00:02:19.876Z,3.73
2019-05-06T00:03:19.863Z,3.58
2019-05-06T00:04:19.859Z,3.51
2019-05-06T00:05:19.853Z,3.34
2019-05-06T00:06:19.839Z,3.18
2019-05-06T00:07:19.839Z,3.26
2019-05-06T00:08:19.822Z,3.32
2019-05-06T00:09:19.817Z,3.37
2019-05-06T00:10:19.808Z,3.28
2019-05-06T00:11:19.805Z,3.51
2019-05-06T00:12:19.792Z,3.47
2019-05-06T00:13:19.788Z,3.31
2019-05-06T00:14:19.778Z,3.25
2019-05-06T00:15:19.768Z,3.14
2019-05-06T00:16:19.760Z,3.19
2019-05-06T00:17:19.754Z,3.11
2019-05-06T00:18:19.750Z,3.01
2019-05-06T00:19:19.741Z,2.95
2019-05-06T00:20:19.728Z,2.92
2019-05-06T00:21:19.723Z,2.87
2019-05-06T00:22:19.719Z,2.86
2019-05-06T00:23:19.705Z,2.83
2019-05-06T00:24:19.702Z,2.86
2019-05-06T00:25:19.694Z,2.86
2019-05-06T00:26:19.683Z,2.93
2019-05-06T00:27:19.678Z,2.83
2019-05-06T00:28:19.666Z,2.77
2019-05-06T00:29:19.656Z,2.83
2019-05-06T00:30:19.652Z,2.98
2019-05-06T00:31:19.647Z,3.08
2019-05-06T00:32:19.632Z,3.03
2019-05-06T00:33:19.636Z,3.19
2019-05-06T00:34:19.620Z,3.19
2019-05-06T00:35:19.617Z,3.21
2019-05-06T00:36:19.599Z,2.89
2019-05-06T00:37:19.599Z,3.16
2019-05-06T00:38:19.587Z,3.10
2019-05-06T00:39:19.580Z,2.85
2019-05-06T00:40:19.569Z,2.87
2019-05-06T00:41:19.567Z,2.86
2019-05-06T00:42:19.568Z,2.71
2019-05-06T00:43:19.551Z,2.71
2019-05-06T00:44:19.542Z,2.64
2019-05-06T00:45:19.529Z,2.65
2019-05-06T00:46:19.522Z,2.62
2019-05-06T00:47:19.514Z,2.60
2019-05-06T00:48:19.509Z,2.68
2019-05-06T00:49:19.494Z,2.61
2019-05-06T00:50:19.492Z,2.62
2019-05-06T00:51:19.484Z,2.67
2019-05-06T00:52:19.469Z,2.64
2019-05-06T00:53:19.466Z,2.47
2019-05-06T00:54:19.454Z,2.61
2019-05-06T00:55:19.451Z,2.65
2019-05-06T00:56:19.441Z,2.56
2019-05-06T00:57:19.438Z,2.54
2019-05-06T00:58:19.423Z,2.49
2019-05-06T00:59:19.429Z,2.51
2019-05-06T01:00:19.427Z,2.62
2019-05-06T01:01:27.058Z,2.53
2019-05-06T01:02:19.397Z,2.57
2019-05-06T01:03:19.387Z,2.56
2019-05-06T01:04:19.380Z,2.64
2019-05-06T01:05:19.368Z,2.50
2019-05-06T01:06:19.364Z,2.53
2019-05-06T01:07:19.354Z,2.50
2019-05-06T01:08:19.346Z,2.54
2019-05-06T01:09:19.344Z,2.51
2019-05-06T01:10:19.327Z,2.67
2019-05-06T01:11:19.323Z,2.57
2019-05-06T01:12:19.336Z,2.49
2019-05-06T01:13:19.302Z,2.46
2019-05-06T01:14:19.298Z,2.54
2019-05-06T01:15:19.288Z,2.49
2019-05-06T01:16:19.275Z,2.71
2019-05-06T01:17:19.267Z,2.71
2019-05-06T01:18:19.263Z,2.90
2019-05-06T01:19:19.257Z,2.79
2019-05-06T01:20:19.249Z,3.04
2019-05-06T01:21:19.236Z,3.07
2019-05-06T01:22:19.228Z,3.10
2019-05-06T01:23:19.222Z,3.16
2019-05-06T01:24:19.212Z,3.29
2019-05-06T01:25:19.205Z,3.36
2019-05-06T01:26:19.198Z,3.14
2019-05-06T01:27:19.185Z,3.01
2019-05-06T01:28:19.176Z,3.03
2019-05-06T01:29:19.168Z,2.83
2019-05-06T01:30:19.164Z,2.85
2019-05-06T01:31:19.154Z,2.95
2019-05-06T01:32:19.150Z,2.77
2019-05-06T01:33:19.135Z,2.86
2019-05-06T01:34:19.129Z,2.79
2019-05-06T01:35:19.125Z,2.72
2019-05-06T01:36:19.118Z,2.79
2019-05-06T01:37:19.108Z,2.83
2019-05-06T01:38:19.099Z,2.89
2019-05-06T01:39:19.093Z,2.77
2019-05-06T01:40:19.085Z,2.74
2019-05-06T01:41:19.071Z,2.85
2019-05-06T01:42:19.074Z,2.79
2019-05-06T01:43:19.056Z,2.68
2019-05-06T01:44:19.047Z,2.67
2019-05-06T01:45:19.037Z,2.68
2019-05-06T01:46:19.029Z,2.72
2019-05-06T01:47:19.025Z,2.67
2019-05-06T01:48:19.012Z,2.69
2019-05-06T01:49:19.011Z,2.71
2019-05-06T01:50:18.997Z,2.69
2019-05-06T01:51:18.997Z,2.65
2019-05-06T01:52:18.986Z,2.65
2019-05-06T01:53:18.978Z,2.65
2019-05-06T01:54:18.969Z,2.68
2019-05-06T01:55:18.958Z,2.67
2019-05-06T01:56:18.950Z,2.60
2019-05-06T01:57:18.945Z,2.65
2019-05-06T01:58:18.938Z,2.65
2019-05-06T01:59:18.930Z,2.69
2019-05-06T02:00:18.914Z,2.68
2019-05-06T02:01:18.909Z,2.67
2019-05-06T02:02:18.904Z,2.68
2019-05-06T02:03:18.895Z,2.75
2019-05-06T02:04:18.888Z,2.69
2019-05-06T02:05:18.878Z,2.75
2019-05-06T02:06:18.867Z,2.74
2019-05-06T02:07:18.857Z,2.68
2019-05-06T02:08:18.849Z,2.69
2019-05-06T02:09:18.841Z,2.65
2019-05-06T02:10:18.833Z,2.77
2019-05-06T02:11:18.826Z,2.72
2019-05-06T02:12:18.818Z,2.79
2019-05-06T02:13:18.810Z,2.74
2019-05-06T02:14:18.806Z,2.79
2019-05-06T02:15:18.794Z,2.82
2019-05-06T02:16:18.794Z,2.80
2019-05-06T02:17:18.781Z,2.75
2019-05-06T02:18:18.769Z,2.85
2019-05-06T02:19:18.763Z,2.75
2019-05-06T02:20:18.754Z,2.80
2019-05-06T02:21:18.743Z,2.90
2019-05-06T02:22:18.739Z,3.00
2019-05-06T02:23:18.733Z,3.04
2019-05-06T02:24:18.724Z,2.97
2019-05-06T02:25:18.716Z,2.90
2019-05-06T02:26:18.707Z,2.87
2019-05-06T02:27:18.699Z,2.87
2019-05-06T02:28:18.684Z,2.82
2019-05-06T02:29:18.684Z,2.86
2019-05-06T02:30:18.673Z,2.87
2019-05-06T02:31:18.669Z,2.92
2019-05-06T02:32:25.972Z,2.98
2019-05-06T02:33:18.647Z,3.10
2019-05-06T02:34:18.641Z,3.07
2019-05-06T02:35:18.683Z,3.07
2019-05-06T02:36:18.622Z,3.03
2019-05-06T02:37:18.627Z,3.04
2019-05-06T02:38:18.606Z,3.00
2019-05-06T02:39:18.604Z,3.11
2019-05-06T02:40:18.592Z,3.01
2019-05-06T02:41:18.585Z,2.93
2019-05-06T02:42:18.575Z,3.04
2019-05-06T02:43:18.566Z,2.98
2019-05-06T02:44:18.559Z,2.87
2019-05-06T02:45:18.546Z,2.92
2019-05-06T02:46:18.549Z,2.97
2019-05-06T02:47:18.535Z,2.92
2019-05-06T02:48:18.529Z,2.87
2019-05-06T02:49:18.560Z,2.77
2019-05-06T02:50:18.513Z,2.77
2019-05-06T02:51:18.510Z,2.79
2019-05-06T02:52:18.491Z,2.77
2019-05-06T02:53:18.480Z,2.68
2019-05-06T02:54:18.474Z,2.74
2019-05-06T02:55:18.470Z,2.80
2019-05-06T02:56:18.466Z,2.71
2019-05-06T02:57:18.452Z,2.72
2019-05-06T02:58:18.443Z,2.75
2019-05-06T02:59:18.436Z,2.65
2019-05-06T03:00:18.425Z,2.75
2019-05-06T03:01:18.415Z,2.74
2019-05-06T03:02:35.669Z,2.86
2019-05-06T03:03:18.404Z,2.82
2019-05-06T03:04:18.395Z,2.85
2019-05-06T03:05:18.386Z,2.85
2019-05-06T03:06:18.379Z,2.87
2019-05-06T03:07:18.372Z,2.87
2019-05-06T03:08:18.364Z,2.90
2019-05-06T03:09:18.349Z,2.90
2019-05-06T03:10:18.353Z,2.92
2019-05-06T03:11:18.338Z,2.83
2019-05-06T03:12:18.331Z,2.82
2019-05-06T03:13:18.324Z,2.77
2019-05-06T03:14:18.310Z,2.79
2019-05-06T03:15:18.303Z,2.87
2019-05-06T03:16:18.298Z,2.87
2019-05-06T03:17:18.282Z,3.03
2019-05-06T03:18:18.281Z,3.03
2019-05-06T03:19:18.266Z,3.00
2019-05-06T03:20:18.263Z,2.92
2019-05-06T03:21:18.261Z,2.87
2019-05-06T03:22:18.245Z,2.92
2019-05-06T03:23:18.241Z,2.97
2019-05-06T03:24:18.230Z,2.82
2019-05-06T03:25:18.219Z,2.77
2019-05-06T03:26:18.226Z,2.74
2019-05-06T03:27:18.208Z,2.68
2019-05-06T03:28:18.195Z,2.77
2019-05-06T03:29:18.185Z,2.79
2019-05-06T03:30:18.185Z,2.80
2019-05-06T03:31:18.175Z,2.77
2019-05-06T03:32:28.478Z,2.74
2019-05-06T03:33:44.757Z,2.75
2019-05-06T03:34:46.919Z,2.68
2019-05-06T03:35:33.742Z,2.64
2019-05-06T03:36:25.078Z,2.65
2019-05-06T03:37:18.123Z,2.65
2019-05-06T03:38:18.112Z,2.53
2019-05-06T03:39:18.109Z,2.62
2019-05-06T03:40:18.090Z,2.61
2019-05-06T03:41:18.098Z,2.62
2019-05-06T03:42:18.082Z,2.57
2019-05-06T03:43:18.069Z,2.50
2019-05-06T03:44:18.057Z,2.43
2019-05-06T03:45:18.052Z,2.57
2019-05-06T03:46:18.048Z,2.42
2019-05-06T03:47:18.037Z,2.29
2019-05-06T03:48:18.028Z,2.36
2019-05-06T03:49:18.019Z,2.43
2019-05-06T03:50:18.011Z,2.33
2019-05-06T03:51:18.003Z,2.38
2019-05-06T03:52:17.991Z,2.46
2019-05-06T03:53:17.988Z,2.43
2019-05-06T03:54:17.977Z,2.43
2019-05-06T03:55:17.972Z,2.32
2019-05-06T03:56:20.021Z,2.50
2019-05-06T03:57:17.957Z,2.39
2019-05-06T03:58:17.945Z,2.29
2019-05-06T03:59:17.934Z,2.26
2019-05-06T04:00:17.921Z,2.25
2019-05-06T04:01:17.915Z,2.29
2019-05-06T04:02:17.911Z,2.18
2019-05-06T04:03:17.903Z,2.20
2019-05-06T04:04:17.888Z,2.13
2019-05-06T04:05:17.887Z,2.20
2019-05-06T04:06:17.885Z,2.17
2019-05-06T04:07:17.870Z,2.29
2019-05-06T04:08:20.233Z,2.18
2019-05-06T04:09:17.858Z,2.18
2019-05-06T04:10:17.844Z,2.04
2019-05-06T04:11:17.830Z,2.15
2019-05-06T04:12:17.824Z,2.18
2019-05-06T04:13:17.816Z,2.39
2019-05-06T04:14:17.807Z,2.46
2019-05-06T04:15:17.798Z,2.53
2019-05-06T04:16:17.795Z,2.64
2019-05-06T04:17:17.780Z,2.56
2019-05-06T04:18:17.776Z,2.64
2019-05-06T04:19:17.767Z,2.64
2019-05-06T04:20:17.756Z,2.62
2019-05-06T04:21:17.749Z,2.71
2019-05-06T04:22:17.740Z,2.67
2019-05-06T04:23:17.736Z,2.71
2019-05-06T04:24:17.724Z,2.64
2019-05-06T04:25:17.711Z,2.72
2019-05-06T04:26:17.707Z,2.72
2019-05-06T04:27:17.693Z,2.82
2019-05-06T04:28:17.685Z,2.83
2019-05-06T04:29:17.682Z,2.90
2019-05-06T04:30:17.678Z,2.92
2019-05-06T04:31:17.662Z,3.03
2019-05-06T04:32:17.650Z,3.04
2019-05-06T04:33:17.860Z,3.18
2019-05-06T04:34:19.689Z,3.03
2019-05-06T04:35:17.626Z,3.26
2019-05-06T04:36:17.624Z,3.22
2019-05-06T04:37:17.616Z,3.21
2019-05-06T04:38:17.606Z,3.28
2019-05-06T04:39:17.593Z,3.18
2019-05-06T04:40:17.586Z,3.31
2019-05-06T04:41:17.582Z,3.37
2019-05-06T04:42:17.573Z,3.36
2019-05-06T04:43:17.562Z,3.42
2019-05-06T04:44:17.555Z,3.42
2019-05-06T04:45:17.685Z,3.56
2019-05-06T04:46:17.537Z,3.60
2019-05-06T04:47:17.535Z,3.66
2019-05-06T04:48:17.523Z,3.68
2019-05-06T04:49:17.514Z,3.65
2019-05-06T04:50:17.502Z,3.62
2019-05-06T04:51:17.494Z,3.66
2019-05-06T04:52:17.486Z,3.78
2019-05-06T04:53:17.482Z,3.76
2019-05-06T04:54:17.482Z,3.86
2019-05-06T04:55:17.469Z,3.80
2019-05-06T04:56:17.459Z,3.81
2019-05-06T04:57:17.454Z,3.96
2019-05-06T04:58:17.456Z,3.87
2019-05-06T04:59:17.434Z,3.99
2019-05-06T05:00:17.421Z,4.05
2019-05-06T05:01:17.416Z,4.06
2019-05-06T05:02:17.412Z,4.05
2019-05-06T05:03:17.403Z,4.05
2019-05-06T05:04:28.312Z,4.06
2019-05-06T05:05:17.387Z,4.10
2019-05-06T05:06:17.402Z,4.12
2019-05-06T05:07:17.370Z,4.13
2019-05-06T05:08:17.361Z,4.13
2019-05-06T05:09:17.612Z,4.13
2019-05-06T05:10:17.349Z,4.17
2019-05-06T05:11:17.335Z,4.24
2019-05-06T05:12:17.330Z,4.24
2019-05-06T05:13:17.320Z,4.31
2019-05-06T05:14:21.684Z,4.31
2019-05-06T05:15:17.304Z,4.31
2019-05-06T05:16:17.297Z,4.38
2019-05-06T05:17:17.285Z,4.37
2019-05-06T05:18:17.279Z,4.38
2019-05-06T05:19:17.274Z,4.55
2019-05-06T05:20:17.264Z,4.55
2019-05-06T05:21:17.254Z,4.62
2019-05-06T05:22:17.253Z,4.62
2019-05-06T05:23:17.244Z,4.68
2019-05-06T05:24:17.234Z,4.80
2019-05-06T05:25:17.224Z,4.92
2019-05-06T05:26:17.221Z,4.86
2019-05-06T05:27:17.223Z,4.82
2019-05-06T05:28:17.200Z,4.82
2019-05-06T05:29:17.196Z,4.86
2019-05-06T05:30:17.188Z,4.80
2019-05-06T05:31:17.184Z,4.93
2019-05-06T05:32:17.177Z,4.92
2019-05-06T05:33:17.169Z,4.97
2019-05-06T05:34:17.163Z,4.99
2019-05-06T05:35:17.152Z,5.00
2019-05-06T05:36:17.141Z,5.08
2019-05-06T05:37:17.139Z,5.11
2019-05-06T05:38:17.131Z,5.08
2019-05-06T05:39:17.125Z,5.11
2019-05-06T05:40:17.117Z,5.14
2019-05-06T05:41:17.103Z,5.17
2019-05-06T05:42:17.099Z,5.20
2019-05-06T05:43:17.088Z,5.05
2019-05-06T05:44:17.086Z,5.14
2019-05-06T05:45:17.075Z,5.18
2019-05-06T05:46:17.069Z,5.17
2019-05-06T05:47:17.063Z,5.29
2019-05-06T05:48:17.054Z,5.26
2019-05-06T05:49:20.152Z,5.35
2019-05-06T05:50:17.037Z,5.28
2019-05-06T05:51:17.037Z,5.26
2019-05-06T05:52:17.026Z,5.36
2019-05-06T05:53:17.015Z,5.39
2019-05-06T05:54:17.010Z,5.41
2019-05-06T05:55:17.007Z,5.38
2019-05-06T05:56:16.999Z,5.41
2019-05-06T05:57:16.989Z,5.46
2019-05-06T05:58:17.002Z,5.51
2019-05-06T05:59:16.976Z,5.59
2019-05-06T06:00:16.970Z,5.69
2019-05-06T06:01:16.965Z,5.72
2019-05-06T06:02:16.958Z,5.76
2019-05-06T06:03:16.949Z,5.84
2019-05-06T06:04:16.938Z,5.90
2019-05-06T06:05:16.936Z,5.83
2019-05-06T06:06:16.926Z,5.84
2019-05-06T06:07:16.922Z,5.91
2019-05-06T06:08:16.919Z,6.12
2019-05-06T06:09:16.910Z,6.20
2019-05-06T06:10:16.899Z,6.16
2019-05-06T06:11:16.894Z,6.09
2019-05-06T06:12:16.890Z,6.24
2019-05-06T06:13:16.882Z,6.30
2019-05-06T06:14:16.875Z,6.46
2019-05-06T06:15:16.866Z,6.44
2019-05-06T06:16:16.862Z,6.41
2019-05-06T06:17:16.848Z,6.57
2019-05-06T06:18:16.846Z,6.49
2019-05-06T06:19:16.836Z,6.38
2019-05-06T06:20:16.827Z,6.46
2019-05-06T06:21:21.257Z,6.60
2019-05-06T06:22:16.822Z,6.79
2019-05-06T06:23:16.808Z,6.79
2019-05-06T06:24:16.803Z,6.87
2019-05-06T06:25:16.795Z,7.05
2019-05-06T06:26:16.790Z,6.92
2019-05-06T06:27:16.788Z,6.70
2019-05-06T06:28:16.782Z,6.89
2019-05-06T06:29:16.777Z,7.00
2019-05-06T06:30:16.773Z,6.82
2019-05-06T06:31:16.765Z,7.23
2019-05-06T06:32:16.762Z,7.11
2019-05-06T06:33:16.748Z,7.20
2019-05-06T06:34:16.743Z,7.02
2019-05-06T06:35:19.149Z,7.11
2019-05-06T06:36:16.729Z,7.29
2019-05-06T06:37:16.740Z,7.56
2019-05-06T06:38:16.722Z,8.01
2019-05-06T06:39:16.717Z,8.12
2019-05-06T06:40:16.712Z,7.98
2019-05-06T06:41:16.711Z,7.82
2019-05-06T06:42:16.714Z,7.82
2019-05-06T06:43:16.695Z,7.98
2019-05-06T06:44:16.690Z,7.98
2019-05-06T06:45:16.684Z,7.88
2019-05-06T06:46:16.681Z,7.93
2019-05-06T06:47:16.670Z,7.85
2019-05-06T06:48:16.667Z,8.06
2019-05-06T06:49:16.663Z,7.87
2019-05-06T06:50:16.655Z,7.80
2019-05-06T06:51:16.647Z,7.48
2019-05-06T06:52:16.641Z,7.53
2019-05-06T06:53:16.640Z,7.70
2019-05-06T06:54:16.630Z,7.83
2019-05-06T06:55:18.512Z,7.95
2019-05-06T06:56:16.621Z,8.00
2019-05-06T06:57:16.618Z,8.13
2019-05-06T06:58:16.608Z,8.13
2019-05-06T06:59:16.607Z,8.24
2019-05-06T07:00:16.595Z,8.55
2019-05-06T07:01:16.598Z,8.69
2019-05-06T07:02:16.593Z,8.46
2019-05-06T07:03:16.584Z,8.52
2019-05-06T07:04:16.576Z,8.28
2019-05-06T07:05:27.539Z,8.69
2019-05-06T07:06:16.566Z,8.69
2019-05-06T07:07:16.565Z,8.53
2019-05-06T07:08:16.559Z,8.84
2019-05-06T07:09:16.553Z,9.03
2019-05-06T07:10:16.549Z,9.13
2019-05-06T07:11:16.542Z,8.73
2019-05-06T07:12:16.572Z,8.67
2019-05-06T07:13:16.546Z,8.51
2019-05-06T07:14:16.528Z,8.87
2019-05-06T07:15:16.527Z,8.74
2019-05-06T07:16:16.518Z,8.76
2019-05-06T07:17:16.516Z,8.95
2019-05-06T07:18:16.511Z,9.08
2019-05-06T07:19:16.504Z,8.94
2019-05-06T07:20:16.505Z,9.00
2019-05-06T07:21:16.498Z,9.32
2019-05-06T07:22:16.492Z,9.61
2019-05-06T07:23:16.486Z,9.54
2019-05-06T07:24:16.484Z,9.48
2019-05-06T07:25:16.481Z,9.39
2019-05-06T07:26:16.475Z,9.37
2019-05-06T07:27:16.471Z,9.40
2019-05-06T07:28:16.468Z,9.51
2019-05-06T07:29:23.611Z,9.55
2019-05-06T07:30:16.458Z,9.58
2019-05-06T07:31:22.345Z,9.56
2019-05-06T07:32:16.454Z,9.68
2019-05-06T07:33:16.455Z,9.87
2019-05-06T07:34:16.446Z,9.84
2019-05-06T07:35:16.442Z,9.74
2019-05-06T07:36:16.436Z,9.62
2019-05-06T07:37:16.431Z,9.72
2019-05-06T07:38:16.425Z,9.72
2019-05-06T07:39:16.432Z,9.65
2019-05-06T07:40:16.418Z,9.58
2019-05-06T07:41:16.418Z,9.65
2019-05-06T07:42:16.412Z,9.58
2019-05-06T07:43:16.413Z,9.73
2019-05-06T07:44:16.405Z,9.89
2019-05-06T07:45:16.399Z,10.02
2019-05-06T07:46:16.398Z,9.98
2019-05-06T07:47:16.390Z,10.35
2019-05-06T07:48:16.386Z,10.46
2019-05-06T07:49:16.382Z,10.53
2019-05-06T07:50:16.380Z,10.76
2019-05-06T07:51:16.377Z,11.18
2019-05-06T07:52:17.271Z,11.15
2019-05-06T07:53:16.376Z,10.86
2019-05-06T07:54:16.366Z,10.97
2019-05-06T07:55:16.363Z,10.61
2019-05-06T07:56:16.364Z,10.56
2019-05-06T07:57:16.364Z,10.44
2019-05-06T07:58:16.354Z,10.54
2019-05-06T07:59:16.351Z,10.60
2019-05-06T08:00:16.350Z,10.20
2019-05-06T08:01:16.350Z,10.61
2019-05-06T08:02:16.346Z,10.44
2019-05-06T08:03:16.341Z,10.31
2019-05-06T08:04:16.337Z,10.81
2019-05-06T08:05:16.338Z,11.14
2019-05-06T08:06:16.337Z,11.04
2019-05-06T08:07:16.335Z,11.15
2019-05-06T08:08:16.330Z,11.26
2019-05-06T08:09:16.322Z,10.93
2019-05-06T08:10:16.326Z,11.33
2019-05-06T08:11:16.320Z,11.51
2019-05-06T08:12:16.313Z,11.97
2019-05-06T08:13:16.315Z,11.36
2019-05-06T08:14:16.311Z,11.54
2019-05-06T08:15:16.322Z,11.55
2019-05-06T08:16:16.307Z,10.90
2019-05-06T08:17:16.309Z,11.30
2019-05-06T08:18:16.305Z,11.63
2019-05-06T08:19:16.302Z,11.23
2019-05-06T08:20:16.297Z,11.41
2019-05-06T08:21:16.298Z,11.72
2019-05-06T08:22:16.295Z,11.30
2019-05-06T08:23:16.293Z,11.33
2019-05-06T08:24:16.286Z,11.23
2019-05-06T08:25:16.292Z,11.12
2019-05-06T08:26:17.853Z,10.74
2019-05-06T08:27:16.287Z,10.44
2019-05-06T08:28:16.285Z,10.44
2019-05-06T08:29:16.277Z,10.46
2019-05-06T08:30:16.321Z,10.37
2019-05-06T08:31:16.271Z,10.01
2019-05-06T08:32:16.272Z,9.94
2019-05-06T08:33:16.271Z,9.84
2019-05-06T08:34:16.268Z,10.26
2019-05-06T08:35:16.260Z,10.60
2019-05-06T08:36:16.262Z,11.10
2019-05-06T08:37:16.276Z,11.51
2019-05-06T08:38:16.250Z,11.88
2019-05-06T08:39:16.246Z,12.20
2019-05-06T08:40:16.244Z,12.10
2019-05-06T08:41:16.241Z,12.39
2019-05-06T08:42:16.272Z,12.61
2019-05-06T08:43:16.238Z,13.04
2019-05-06T08:44:16.234Z,12.75
2019-05-06T08:45:16.224Z,12.27
2019-05-06T08:46:16.227Z,12.20
2019-05-06T08:47:16.220Z,12.49
2019-05-06T08:48:16.216Z,11.63
2019-05-06T08:49:16.209Z,12.02
2019-05-06T08:50:16.209Z,13.09
2019-05-06T08:51:16.206Z,12.43
2019-05-06T08:52:16.207Z,13.33
2019-05-06T08:53:16.221Z,13.89
2019-05-06T08:54:16.207Z,14.20
2019-05-06T08:55:16.191Z,13.05
2019-05-06T08:56:16.590Z,12.76
2019-05-06T08:57:16.185Z,14.26
2019-05-06T08:58:16.184Z,14.05
2019-05-06T08:59:16.186Z,14.00
2019-05-06T09:00:16.182Z,14.45
2019-05-06T09:01:16.181Z,14.60
2019-05-06T09:02:16.175Z,14.43
2019-05-06T09:03:16.180Z,14.45
2019-05-06T09:04:16.600Z,14.51
2019-05-06T09:05:16.171Z,14.00
2019-05-06T09:06:26.540Z,13.65
2019-05-06T09:07:16.168Z,13.23
2019-05-06T09:08:16.166Z,13.63
2019-05-06T09:09:16.172Z,12.97
2019-05-06T09:10:16.171Z,13.96
2019-05-06T09:11:16.169Z,14.68
2019-05-06T09:12:16.171Z,14.30
2019-05-06T09:13:16.165Z,13.03
2019-05-06T09:14:16.162Z,14.07
2019-05-06T09:15:16.163Z,15.00
2019-05-06T09:16:16.161Z,15.14
2019-05-06T09:17:16.156Z,14.85
2019-05-06T09:18:16.153Z,14.43
2019-05-06T09:19:16.157Z,15.03
2019-05-06T09:20:16.152Z,15.14
2019-05-06T09:21:16.150Z,15.27
2019-05-06T09:22:16.154Z,14.99
2019-05-06T09:23:16.154Z,14.30
2019-05-06T09:24:16.153Z,14.69
2019-05-06T09:25:16.150Z,14.41
2019-05-06T09:26:16.150Z,14.40
2019-05-06T09:27:16.146Z,14.11
2019-05-06T09:28:16.145Z,15.03
2019-05-06T09:29:16.145Z,15.07
2019-05-06T09:30:16.144Z,15.83
2019-05-06T09:31:16.138Z,14.69
2019-05-06T09:32:16.140Z,15.25
2019-05-06T09:33:16.137Z,15.09
2019-05-06T09:34:16.145Z,15.43
2019-05-06T09:35:16.140Z,13.99
2019-05-06T09:36:16.143Z,13.57
2019-05-06T09:37:16.138Z,14.45
2019-05-06T09:38:16.143Z,14.51
2019-05-06T09:39:16.139Z,15.25
2019-05-06T09:40:16.137Z,15.57
2019-05-06T09:41:16.143Z,14.04
2019-05-06T09:42:16.142Z,14.20
2019-05-06T09:43:16.144Z,14.84
2019-05-06T09:44:16.145Z,15.18
2019-05-06T09:45:16.143Z,15.82
2019-05-06T09:46:16.140Z,15.98
2019-05-06T09:47:16.146Z,16.13
2019-05-06T09:48:16.148Z,15.46
2019-05-06T09:49:16.146Z,14.86
2019-05-06T09:50:16.154Z,14.12
2019-05-06T09:51:16.147Z,14.40
2019-05-06T09:52:16.147Z,15.44
2019-05-06T09:53:16.156Z,15.33
2019-05-06T09:54:16.152Z,16.31
2019-05-06T09:55:16.157Z,17.23
2019-05-06T09:56:16.152Z,16.74
2019-05-06T09:57:16.157Z,16.56
2019-05-06T09:58:16.174Z,16.01
2019-05-06T09:59:16.159Z,15.83
2019-05-06T10:00:16.164Z,15.79
2019-05-06T10:01:16.166Z,16.02
2019-05-06T10:02:16.171Z,15.37
2019-05-06T10:03:16.173Z,14.85
2019-05-06T10:04:16.176Z,13.68
2019-05-06T10:05:16.169Z,14.08
2019-05-06T10:06:16.170Z,14.85
2019-05-06T10:07:16.172Z,15.03
2019-05-06T10:08:16.174Z,14.78
2019-05-06T10:09:16.545Z,14.91
2019-05-06T10:10:17.769Z,14.45
2019-05-06T10:11:16.185Z,14.81
2019-05-06T10:12:16.189Z,14.12
2019-05-06T10:13:16.191Z,14.43
2019-05-06T10:14:16.187Z,14.05
2019-05-06T10:15:16.196Z,14.36
2019-05-06T10:16:16.194Z,14.26
2019-05-06T10:17:16.191Z,14.30
2019-05-06T10:18:16.195Z,14.84
2019-05-06T10:19:16.229Z,14.29
2019-05-06T10:20:16.195Z,13.60
2019-05-06T10:21:16.214Z,14.59
2019-05-06T10:22:16.202Z,14.30
2019-05-06T10:23:16.210Z,14.81
2019-05-06T10:24:16.216Z,13.90
2019-05-06T10:25:16.213Z,13.78
2019-05-06T10:26:16.221Z,15.29
2019-05-06T10:27:16.212Z,16.64
2019-05-06T10:28:16.213Z,15.75
2019-05-06T10:29:16.231Z,15.09
2019-05-06T10:30:16.224Z,14.15
2019-05-06T10:31:16.230Z,15.02
2019-05-06T10:32:16.227Z,15.46
2019-05-06T10:33:16.257Z,14.97
2019-05-06T10:34:16.239Z,15.19
2019-05-06T10:35:16.238Z,14.82
2019-05-06T10:36:16.242Z,14.79
2019-05-06T10:37:19.254Z,14.85
2019-05-06T10:38:16.246Z,14.23
2019-05-06T10:39:16.241Z,13.77
2019-05-06T10:40:16.245Z,14.48
2019-05-06T10:41:16.249Z,14.10
2019-05-06T10:42:16.249Z,14.04
2019-05-06T10:43:16.250Z,14.60
2019-05-06T10:44:16.255Z,14.81
2019-05-06T10:45:16.252Z,14.10
2019-05-06T10:46:16.258Z,15.00
2019-05-06T10:47:16.259Z,14.82
2019-05-06T10:48:16.264Z,13.74
2019-05-06T10:49:16.261Z,13.68
2019-05-06T10:50:16.264Z,14.43
2019-05-06T10:51:17.093Z,16.29
2019-05-06T10:52:16.269Z,15.21
2019-05-06T10:53:16.266Z,14.59
2019-05-06T10:54:16.272Z,14.51
2019-05-06T10:55:16.273Z,14.15
2019-05-06T10:56:16.274Z,14.91
2019-05-06T10:57:16.273Z,15.98
2019-05-06T10:58:16.282Z,15.73
2019-05-06T10:59:16.277Z,17.31
2019-05-06T11:00:16.286Z,17.68
2019-05-06T11:01:16.289Z,18.00
2019-05-06T11:02:16.292Z,16.68
2019-05-06T11:03:16.298Z,14.86
2019-05-06T11:04:16.305Z,14.23
2019-05-06T11:05:16.309Z,13.79
2019-05-06T11:06:16.315Z,12.97
2019-05-06T11:07:28.226Z,13.04
2019-05-06T11:08:16.313Z,13.15
2019-05-06T11:09:16.317Z,13.38
2019-05-06T11:10:24.418Z,13.65
2019-05-06T11:11:31.341Z,13.90
2019-05-06T11:12:16.318Z,13.35
2019-05-06T11:13:16.317Z,13.81
2019-05-06T11:14:16.322Z,15.52
2019-05-06T11:15:16.321Z,15.97
2019-05-06T11:16:17.014Z,13.99
2019-05-06T11:17:16.342Z,13.54
2019-05-06T11:18:16.327Z,14.11
2019-05-06T11:19:16.322Z,13.68
2019-05-06T11:20:16.345Z,13.47
2019-05-06T11:21:16.323Z,13.53
2019-05-06T11:22:16.340Z,13.89
2019-05-06T11:23:16.330Z,14.10
2019-05-06T11:24:16.334Z,14.18
2019-05-06T11:25:16.324Z,14.96
2019-05-06T11:26:16.330Z,15.39
2019-05-06T11:27:27.761Z,14.84
2019-05-06T11:28:16.327Z,16.46
2019-05-06T11:29:16.333Z,17.65
2019-05-06T11:30:16.381Z,17.80
2019-05-06T11:31:16.344Z,18.37
2019-05-06T11:32:16.346Z,19.34
2019-05-06T11:33:16.357Z,17.02
2019-05-06T11:34:16.362Z,15.42
2019-05-06T11:35:16.376Z,14.84
2019-05-06T11:36:16.370Z,15.33
2019-05-06T11:37:16.389Z,15.22
2019-05-06T11:38:16.375Z,14.99
2019-05-06T11:39:16.386Z,14.53
2019-05-06T11:40:17.153Z,14.59
2019-05-06T11:41:16.389Z,13.92
2019-05-06T11:42:27.645Z,14.22
2019-05-06T11:43:16.393Z,14.55
2019-05-06T11:44:16.401Z,14.14
2019-05-06T11:45:16.403Z,14.32
2019-05-06T11:46:16.408Z,14.03
2019-05-06T11:47:16.407Z,13.72
2019-05-06T11:48:16.407Z,13.39
2019-05-06T11:49:16.413Z,14.22
2019-05-06T11:50:16.408Z,14.03
2019-05-06T11:51:16.416Z,13.60
2019-05-06T11:52:16.414Z,14.10
2019-05-06T11:53:16.422Z,13.16
2019-05-06T11:54:20.030Z,13.60
2019-05-06T11:55:27.858Z,13.54
2019-05-06T11:56:16.422Z,13.28
2019-05-06T11:57:16.421Z,13.75
2019-05-06T11:58:16.425Z,13.93
2019-05-06T11:59:16.421Z,14.08
2019-05-06T12:00:16.421Z,16.21
2019-05-06T12:01:16.423Z,15.39
2019-05-06T12:02:16.430Z,14.60
2019-05-06T12:03:16.427Z,14.68
2019-05-06T12:04:16.431Z,14.59
2019-05-06T12:05:16.438Z,14.59
2019-05-06T12:06:16.434Z,14.41
2019-05-06T12:07:16.468Z,14.48
2019-05-06T12:08:16.438Z,14.12
2019-05-06T12:09:17.320Z,14.44
2019-05-06T12:10:16.433Z,14.15
2019-05-06T12:11:16.441Z,14.40
2019-05-06T12:12:16.436Z,14.17
2019-05-06T12:13:16.437Z,13.99
2019-05-06T12:14:16.435Z,14.08
2019-05-06T12:15:16.436Z,14.81
2019-05-06T12:16:16.442Z,14.79
2019-05-06T12:17:16.439Z,14.81
2019-05-06T12:18:16.445Z,15.22
2019-05-06T12:19:16.442Z,15.59
2019-05-06T12:20:16.454Z,16.84
2019-05-06T12:21:19.473Z,16.99
2019-05-06T12:22:16.478Z,17.65
2019-05-06T12:23:16.457Z,17.60
2019-05-06T12:24:16.465Z,16.42
2019-05-06T12:25:16.469Z,16.86
2019-05-06T12:26:16.476Z,15.33
2019-05-06T12:27:16.478Z,15.31
2019-05-06T12:28:17.641Z,15.46
2019-05-06T12:29:16.485Z,15.09
2019-05-06T12:30:16.495Z,16.09
2019-05-06T12:31:16.500Z,15.86
2019-05-06T12:32:16.501Z,15.61
2019-05-06T12:33:16.505Z,15.79
2019-05-06T12:34:16.515Z,18.04
2019-05-06T12:35:16.519Z,18.00
2019-05-06T12:36:16.528Z,18.40
2019-05-06T12:37:16.526Z,20.00
2019-05-06T12:38:27.511Z,18.75
2019-05-06T12:39:18.699Z,18.41
2019-05-06T12:40:16.551Z,18.05
2019-05-06T12:41:16.561Z,17.56
2019-05-06T12:42:16.573Z,17.41
2019-05-06T12:43:16.575Z,16.76
2019-05-06T12:44:16.587Z,15.73
2019-05-06T12:45:16.592Z,14.81
2019-05-06T12:46:16.598Z,15.35
2019-05-06T12:47:16.603Z,15.49
2019-05-06T12:48:16.608Z,14.88
2019-05-06T12:49:16.611Z,14.51
2019-05-06T12:50:16.617Z,14.62
2019-05-06T12:51:16.623Z,14.07
2019-05-06T12:52:16.625Z,14.51
2019-05-06T12:53:16.633Z,15.47
2019-05-06T12:54:16.633Z,15.90
2019-05-06T12:55:21.407Z,16.24
2019-05-06T12:56:16.646Z,15.47
2019-05-06T12:57:16.661Z,14.84
2019-05-06T12:58:20.198Z,15.58
2019-05-06T12:59:16.653Z,14.94
2019-05-06T13:00:16.654Z,14.18
2019-05-06T13:01:16.663Z,14.29
2019-05-06T13:02:16.667Z,14.40
2019-05-06T13:03:16.672Z,14.08
2019-05-06T13:04:16.665Z,14.14
2019-05-06T13:05:16.664Z,14.53
2019-05-06T13:06:16.953Z,14.00
2019-05-06T13:07:16.672Z,14.05